Time;durP1;ratioP1;P1;durP2;ratioP2;P2;SDS_P1;SDS_P2;PMS_P1;PMS_P2;Temp;Humidity;BMP_temperature;BMP_pressure;BME280_temperature;BME280_humidity;BME280_pressure;Samples;Min_cycle;Max_cycle;Signal;HPM_P1;HPM_P2
2021/04/07 00:00:09;;;;;;;;;;;;;;;-2.08;100.00;99408.34;5115997;28;20368;-76
2021/04/07 00:02:36;;;;;;;;;;;;;;;-2.02;100.00;99404.25;5117208;28;19928;-76
2021/04/07 00:05:08;;;;;;;;;;;;;;;-2.08;100.00;99397.38;5116161;28;19924;-76
2021/04/07 00:07:35;;;;;;;;;;;;;;;-2.12;100.00;99398.38;5117173;28;19931;-76
2021/04/07 00:10:04;;;;;;;;;;;;;;;-2.17;100.00;99404.03;5117204;28;19924;-76
2021/04/07 00:12:31;;;;;;;;;;;;;;;-2.16;100.00;99400.97;5115630;28;19924;-76
2021/04/07 00:14:58;;;;;;;;;;;;;;;-2.02;100.00;99409.75;5117020;28;20015;-76
2021/04/07 00:17:25;;;;;;;;;;;;;;;-1.70;100.00;99404.66;5116983;28;19938;-76
2021/04/07 00:19:51;;;;;;;;;;;;;;;-1.45;100.00;99409.91;5116956;28;20336;-76
2021/04/07 00:22:19;;;;;;;;;;;;;;;-1.59;100.00;99408.59;5116707;28;19927;-75
2021/04/07 00:24:45;;;;;;;;;;;;;;;-1.60;100.00;99412.47;5116812;28;19924;-76
2021/04/07 00:27:13;;;;;;;;;;;;;;;-1.28;100.00;99406.22;5115386;28;19923;-76
2021/04/07 00:29:40;;;;;;;;;;;;;;;-0.97;100.00;99409.28;5116703;28;20008;-75
2021/04/07 00:32:07;;;;;;;;;;;;;;;-0.87;100.00;99406.09;5116789;28;19950;-75
2021/04/07 00:34:34;;;;;;;;;;;;;;;-0.83;100.00;99398.78;5116441;28;19955;-75
2021/04/07 00:37:01;;;;;;;;;;;;;;;-0.88;100.00;99397.06;5116460;28;19934;-75
2021/04/07 00:39:28;;;;;;;;;;;;;;;-0.88;100.00;99396.28;5116504;28;19924;-75
2021/04/07 00:42:00;;;;;;;;;;;;;;;-0.92;100.00;99395.34;5116483;28;19924;-75
2021/04/07 00:44:27;;;;;;;;;;;;;;;-0.89;100.00;99397.41;5116489;28;19923;-76
2021/04/07 00:46:53;;;;;;;;;;;;;;;-0.82;100.00;99383.94;5114047;28;20010;-75
2021/04/07 00:49:21;;;;;;;;;;;;;;;-1.32;100.00;99399.81;5115026;28;19923;-75
2021/04/07 00:51:48;;;;;;;;;;;;;;;-1.48;100.00;99405.09;5101755;28;19924;-75
2021/04/07 00:54:15;;;;;;;;;;;;;;;-1.68;100.00;99405.91;5116378;28;19931;-76
2021/04/07 00:59:27;;;;;;;;;;;;;;;-1.86;100.00;99399.78;5106903;28;19963;-76
2021/04/07 01:01:55;;;;;;;;;;;;;;;-1.89;100.00;99405.94;5114565;28;19935;-75
2021/04/07 01:04:23;;;;;;;;;;;;;;;-2.12;100.00;99407.38;5114840;28;19967;-75
2021/04/07 01:06:50;;;;;;;;;;;;;;;-2.30;100.00;99399.59;5116097;28;19924;-76
2021/04/07 01:09:17;;;;;;;;;;;;;;;-2.35;100.00;99403.31;5101585;28;20374;-75
2021/04/07 01:11:44;;;;;;;;;;;;;;;-2.37;100.00;99408.34;5114684;28;19939;-75
2021/04/07 01:14:11;;;;;;;;;;;;;;;-2.30;100.00;99394.94;5102591;28;20382;-76
2021/04/07 01:16:39;;;;;;;;;;;;;;;-2.30;100.00;99402.31;5095256;28;20023;-75
2021/04/07 01:19:09;;;;;;;;;;;;;;;-2.31;100.00;99404.28;5107919;28;19932;-76
2021/04/07 01:21:35;;;;;;;;;;;;;;;-2.30;100.00;99405.88;5113111;28;19931;-75
2021/04/07 01:24:11;;;;;;;;;;;;;;;-2.25;100.00;99413.09;5109725;28;19924;-75
2021/04/07 01:26:38;;;;;;;;;;;;;;;-2.25;100.00;99402.97;5115755;28;19928;-76
2021/04/07 01:29:05;;;;;;;;;;;;;;;-2.20;100.00;99413.72;5115518;28;19928;-76
2021/04/07 01:31:32;;;;;;;;;;;;;;;-2.19;100.00;99407.09;5114329;28;20020;-76
2021/04/07 01:33:59;;;;;;;;;;;;;;;-1.95;100.00;99418.22;5115450;27;19927;-75
2021/04/07 01:36:26;;;;;;;;;;;;;;;-1.52;100.00;99397.91;5114045;28;19924;-75
2021/04/07 01:38:52;;;;;;;;;;;;;;;-1.79;100.00;99398.44;5115248;28;19928;-75
2021/04/07 01:41:20;;;;;;;;;;;;;;;-1.62;100.00;99403.78;5114064;28;19924;-75
2021/04/07 01:43:48;;;;;;;;;;;;;;;-1.25;100.00;99389.09;5115675;28;20244;-75
2021/04/07 01:46:14;;;;;;;;;;;;;;;-1.06;100.00;99384.69;5114003;28;19924;-75
2021/04/07 01:48:41;;;;;;;;;;;;;;;-0.86;100.00;99385.75;5113810;28;19924;-75
2021/04/07 01:51:09;;;;;;;;;;;;;;;-0.72;100.00;99388.97;5115143;28;20027;-75
2021/04/07 01:53:36;;;;;;;;;;;;;;;-0.89;100.00;99389.16;5114839;28;19923;-75
2021/04/07 01:56:03;;;;;;;;;;;;;;;-1.17;100.00;99388.19;5114934;28;19936;-75
2021/04/07 01:58:35;;;;;;;;;;;;;;;-1.38;100.00;99392.94;5114577;28;19923;-75
2021/04/07 02:01:02;;;;;;;;;;;;;;;-1.50;100.00;99396.41;5114990;28;19927;-75
2021/04/07 02:03:29;;;;;;;;;;;;;;;-1.31;100.00;99398.66;5114875;28;19946;-75
2021/04/07 02:05:56;;;;;;;;;;;;;;;-1.01;100.00;99391.88;5115032;27;19927;-75
2021/04/07 02:08:22;;;;;;;;;;;;;;;-1.02;100.00;99384.81;5114729;28;19983;-75
2021/04/07 02:10:49;;;;;;;;;;;;;;;-0.80;100.00;99384.38;5114706;28;19923;-75
2021/04/07 02:13:16;;;;;;;;;;;;;;;-0.86;100.00;99385.75;5113654;28;19927;-75
2021/04/07 02:15:42;;;;;;;;;;;;;;;-1.00;100.00;99388.03;5114587;28;19938;-75
2021/04/07 02:18:09;;;;;;;;;;;;;;;-1.01;100.00;99380.91;5114701;28;19938;-75
2021/04/07 02:20:36;;;;;;;;;;;;;;;-1.33;100.00;99384.50;5114537;28;19993;-75
2021/04/07 02:23:02;;;;;;;;;;;;;;;-1.50;100.00;99384.66;5114379;27;19924;-75
2021/04/07 02:25:29;;;;;;;;;;;;;;;-1.67;100.00;99388.34;5114677;28;20008;-75
2021/04/07 02:27:56;;;;;;;;;;;;;;;-1.94;100.00;99383.44;5114411;28;19927;-76
2021/04/07 02:30:22;;;;;;;;;;;;;;;-2.09;100.00;99390.28;5114449;28;19930;-75
2021/04/07 02:32:49;;;;;;;;;;;;;;;-2.35;100.00;99386.91;5114279;28;19946;-75
2021/04/07 02:35:16;;;;;;;;;;;;;;;-2.24;100.00;99381.84;5114428;28;20737;-75
2021/04/07 02:37:43;;;;;;;;;;;;;;;-2.25;100.00;99392.00;5114465;28;20038;-75
2021/04/07 02:40:10;;;;;;;;;;;;;;;-2.28;100.00;99392.66;5113277;28;19923;-75
2021/04/07 02:42:36;;;;;;;;;;;;;;;-2.42;100.00;99392.09;5114348;27;19980;-75
2021/04/07 02:45:04;;;;;;;;;;;;;;;-2.52;100.00;99391.69;5113233;28;19927;-75
2021/04/07 02:47:31;;;;;;;;;;;;;;;-2.49;100.00;99396.50;5114249;28;19931;-75
2021/04/07 02:50:09;;;;;;;;;;;;;;;-2.48;100.00;99393.41;5071616;28;19963;-76
2021/04/07 02:52:36;;;;;;;;;;;;;;;-2.51;100.00;99394.09;5070694;28;19925;-76
2021/04/07 02:55:02;;;;;;;;;;;;;;;-2.61;100.00;99390.91;5069394;28;19925;-76
2021/04/07 02:57:29;;;;;;;;;;;;;;;-2.58;100.00;99388.34;5070651;28;19929;-76
2021/04/07 02:59:56;;;;;;;;;;;;;;;-2.72;100.00;99397.88;5070579;28;19947;-77
2021/04/07 03:02:22;;;;;;;;;;;;;;;-2.91;100.00;99390.09;5069006;28;19932;-76
2021/04/07 03:04:49;;;;;;;;;;;;;;;-2.87;100.00;99396.50;5086043;28;19932;-76
2021/04/07 03:07:15;;;;;;;;;;;;;;;-2.90;100.00;99397.16;5068439;28;19932;-76
2021/04/07 03:09:42;;;;;;;;;;;;;;;-2.92;100.00;99399.41;5070080;28;19952;-76
2021/04/07 03:12:09;;;;;;;;;;;;;;;-3.05;100.00;99392.22;5069892;28;19925;-77
2021/04/07 03:14:35;;;;;;;;;;;;;;;-3.12;100.00;99391.91;5070115;28;20027;-76
2021/04/07 03:17:02;;;;;;;;;;;;;;;-3.10;100.00;99392.38;5070286;28;19936;-76
2021/04/07 03:19:28;;;;;;;;;;;;;;;-3.13;100.00;99393.03;5070258;28;19933;-76
2021/04/07 03:21:55;;;;;;;;;;;;;;;-3.14;100.00;99396.91;5069816;28;19924;-76
2021/04/07 03:24:21;;;;;;;;;;;;;;;-3.29;100.00;99400.16;5069995;28;20327;-76
2021/04/07 03:26:48;;;;;;;;;;;;;;;-3.39;100.00;99400.50;5068772;28;20380;-76
2021/04/07 03:29:15;;;;;;;;;;;;;;;-3.34;100.00;99400.31;5069884;28;19947;-76
2021/04/07 03:31:42;;;;;;;;;;;;;;;-3.34;100.00;99408.53;5069785;28;20327;-77
2021/04/07 03:34:08;;;;;;;;;;;;;;;-3.37;100.00;99398.25;5069973;28;20283;-76
2021/04/07 03:36:35;;;;;;;;;;;;;;;-3.46;100.00;99407.56;5068716;28;20015;-76
2021/04/07 03:39:05;;;;;;;;;;;;;;;-3.47;100.00;99409.53;5068495;28;20356;-76
2021/04/07 03:41:32;;;;;;;;;;;;;;;-3.52;100.00;99401.47;5068443;28;19928;-76
2021/04/07 03:43:59;;;;;;;;;;;;;;;-3.52;100.00;99412.41;5068451;28;19935;-76
2021/04/07 03:46:25;;;;;;;;;;;;;;;-3.62;100.00;99410.00;5069687;28;19932;-76
2021/04/07 03:48:52;;;;;;;;;;;;;;;-3.63;100.00;99411.13;5067895;28;19929;-76
2021/04/07 03:51:19;;;;;;;;;;;;;;;-3.68;100.00;99419.47;5069548;28;20380;-76
2021/04/07 03:53:47;;;;;;;;;;;;;;;-3.73;100.00;99416.91;5069445;28;19932;-77
2021/04/07 03:56:13;;;;;;;;;;;;;;;-3.68;100.00;99418.69;5069484;28;20010;-77
2021/04/07 03:58:40;;;;;;;;;;;;;;;-3.69;100.00;99412.41;5068100;28;19983;-76
2021/04/07 04:01:08;;;;;;;;;;;;;;;-3.60;100.00;99426.88;5058190;28;19975;-76
2021/04/07 04:03:34;;;;;;;;;;;;;;;-3.69;100.00;99423.34;5056037;28;19932;-76
2021/04/07 04:06:01;;;;;;;;;;;;;;;-3.54;100.00;99425.56;5056031;28;19924;-76
2021/04/07 04:08:27;;;;;;;;;;;;;;;-3.53;100.00;99427.19;5055974;28;19924;-76
2021/04/07 04:10:55;;;;;;;;;;;;;;;-3.58;100.00;99427.34;5054668;28;19961;-76
2021/04/07 04:13:22;;;;;;;;;;;;;;;-3.52;100.00;99422.53;5055756;28;19925;-76
2021/04/07 04:15:49;;;;;;;;;;;;;;;-3.66;100.00;99417.22;5055902;28;19932;-76
2021/04/07 04:18:15;;;;;;;;;;;;;;;-3.72;100.00;99421.25;5054585;28;19928;-77
2021/04/07 04:20:43;;;;;;;;;;;;;;;-3.79;100.00;99423.66;5055797;28;20392;-77
2021/04/07 04:23:10;;;;;;;;;;;;;;;-3.72;100.00;99435.72;5055653;28;19986;-76
2021/04/07 04:25:38;;;;;;;;;;;;;;;-3.87;100.00;99432.66;5054621;28;20375;-76
2021/04/07 04:28:05;;;;;;;;;;;;;;;-3.96;100.00;99429.09;5055333;28;19932;-77
2021/04/07 04:30:32;;;;;;;;;;;;;;;-4.15;100.00;99425.88;5054348;28;19954;-76
2021/04/07 04:32:58;;;;;;;;;;;;;;;-4.17;100.00;99430.84;5055448;28;20395;-76
2021/04/07 04:35:26;;;;;;;;;;;;;;;-4.16;100.00;99433.25;5055574;28;19924;-76
2021/04/07 04:37:53;;;;;;;;;;;;;;;-4.22;100.00;99439.16;5055522;28;19924;-77
2021/04/07 04:40:20;;;;;;;;;;;;;;;-4.17;100.00;99428.94;5055160;28;19935;-76
2021/04/07 04:42:47;;;;;;;;;;;;;;;-4.16;100.00;99429.72;5055346;28;19924;-76
2021/04/07 04:45:14;;;;;;;;;;;;;;;-3.94;100.00;99424.13;5055254;28;19924;-76
2021/04/07 04:47:40;;;;;;;;;;;;;;;-3.75;100.00;99435.53;5055186;28;19924;-76
2021/04/07 04:50:08;;;;;;;;;;;;;;;-3.78;100.00;99433.44;5055013;28;19964;-76
2021/04/07 04:52:35;;;;;;;;;;;;;;;-3.80;100.00;99430.22;5055222;28;20002;-76
2021/04/07 04:55:05;;;;;;;;;;;;;;;-3.92;100.00;99430.06;5055040;28;20399;-76
2021/04/07 04:57:32;;;;;;;;;;;;;;;-3.86;100.00;99437.78;5055024;28;19936;-76
2021/04/07 04:59:59;;;;;;;;;;;;;;;-3.89;100.00;99435.69;5055130;28;20324;-76
2021/04/07 05:02:26;;;;;;;;;;;;;;;-4.11;100.00;99437.75;5053542;28;20280;-77
2021/04/07 05:04:53;;;;;;;;;;;;;;;-4.07;100.00;99444.19;5053708;28;20364;-76
2021/04/07 05:07:22;;;;;;;;;;;;;;;-4.14;100.00;99447.41;5054683;28;19939;-76
2021/04/07 05:09:49;;;;;;;;;;;;;;;-3.96;100.00;99440.03;5054725;28;20032;-76
2021/04/07 05:12:16;;;;;;;;;;;;;;;-3.86;100.00;99436.97;5052388;28;19925;-76
2021/04/07 05:14:45;;;;;;;;;;;;;;;-4.02;100.00;99447.56;5054617;28;19931;-76
2021/04/07 05:17:11;;;;;;;;;;;;;;;-4.13;100.00;99435.34;5053397;28;19928;-77
2021/04/07 05:19:38;;;;;;;;;;;;;;;-4.06;100.00;99451.25;5053222;28;19925;-76
2021/04/07 05:22:05;;;;;;;;;;;;;;;-4.02;100.00;99457.69;5054573;28;20410;-77
2021/04/07 05:24:31;;;;;;;;;;;;;;;-3.96;100.00;99453.69;5054057;28;19936;-77
2021/04/07 05:26:59;;;;;;;;;;;;;;;-3.95;100.00;99464.28;5054355;28;19928;-77
2021/04/07 05:29:25;;;;;;;;;;;;;;;-4.04;100.00;99463.47;5054225;28;19925;-76
2021/04/07 05:31:53;;;;;;;;;;;;;;;-3.92;100.00;99462.81;5053917;28;19936;-76
2021/04/07 05:34:19;;;;;;;;;;;;;;;-3.97;100.00;99465.72;5047806;28;19979;-76
2021/04/07 05:36:46;;;;;;;;;;;;;;;-3.97;100.00;99476.66;5051174;28;19932;-77
2021/04/07 05:39:13;;;;;;;;;;;;;;;-3.77;100.00;99474.09;5052691;28;19951;-76
2021/04/07 05:41:39;;;;;;;;;;;;;;;-3.64;100.00;99475.06;5053298;28;19932;-75
2021/04/07 05:44:06;;;;;;;;;;;;;;;-3.59;100.00;99471.38;5053541;28;19964;-76
2021/04/07 05:46:33;;;;;;;;;;;;;;;-3.57;100.00;99464.47;5047330;28;20295;-76
2021/04/07 05:49:00;;;;;;;;;;;;;;;-3.48;100.00;99468.00;5041106;28;19986;-75
2021/04/07 05:51:27;;;;;;;;;;;;;;;-3.56;100.00;99466.09;5048315;28;19960;-76
2021/04/07 05:53:54;;;;;;;;;;;;;;;-3.55;100.00;99470.41;5049391;28;19932;-76
2021/04/07 05:56:23;;;;;;;;;;;;;;;-3.53;100.00;99470.91;5048789;28;20011;-76
2021/04/07 05:58:49;;;;;;;;;;;;;;;-3.14;100.00;99475.38;5046709;28;19936;-75
2021/04/07 06:01:16;;;;;;;;;;;;;;;-2.67;100.00;99469.66;5048671;28;20387;-76
2021/04/07 06:03:42;;;;;;;;;;;;;;;-2.09;100.00;99466.94;5049376;28;19924;-76
2021/04/07 06:06:10;;;;;;;;;;;;;;;-1.68;100.00;99473.63;5045802;28;19925;-76
2021/04/07 06:08:37;;;;;;;;;;;;;;;-1.43;100.00;99467.13;5041720;28;19978;-76
2021/04/07 06:11:03;;;;;;;;;;;;;;;-1.13;100.00;99471.38;5049443;28;19931;-76
2021/04/07 06:13:31;;;;;;;;;;;;;;;-0.95;100.00;99467.34;5048935;28;19925;-75
2021/04/07 06:15:57;;;;;;;;;;;;;;;-0.86;100.00;99465.31;5049727;28;19929;-75
2021/04/07 06:18:27;;;;;;;;;;;;;;;-0.76;100.00;99464.91;5048542;28;19950;-76
2021/04/07 06:20:54;;;;;;;;;;;;;;;-0.32;100.00;99469.53;5049080;28;19924;-76
2021/04/07 06:23:20;;;;;;;;;;;;;;;0.03;100.00;99458.91;5049337;28;19929;-76
2021/04/07 06:25:47;;;;;;;;;;;;;;;0.08;100.00;99470.44;5049825;28;19932;-74
2021/04/07 06:28:14;;;;;;;;;;;;;;;0.12;100.00;99474.13;5051441;28;19931;-76
2021/04/07 06:33:19;;;;;;;;;;;;;;;0.43;100.00;99477.03;5052833;28;19925;-76
2021/04/07 06:35:48;;;;;;;;;;;;;;;1.21;100.00;99477.34;5053334;28;19978;-77
2021/04/07 06:38:15;;;;;;;;;;;;;;;2.61;100.00;99471.75;5053070;28;20059;-77
2021/04/07 06:40:42;;;;;;;;;;;;;;;3.41;100.00;99465.13;5051883;28;19936;-77
2021/04/07 06:43:09;;;;;;;;;;;;;;;4.26;100.00;99459.06;5053107;28;20380;-77
2021/04/07 06:45:38;;;;;;;;;;;;;;;4.29;100.00;99461.09;5053052;28;19963;-77
2021/04/07 06:48:07;;;;;;;;;;;;;;;5.39;100.00;99466.88;5052974;28;20021;-77
2021/04/07 06:50:34;;;;;;;;;;;;;;;5.44;100.00;99461.78;5053058;28;19931;-76
2021/04/07 06:53:03;;;;;;;;;;;;;;;6.15;100.00;99443.84;5052899;28;19925;-77
2021/04/07 06:55:30;;;;;;;;;;;;;;;5.83;100.00;99445.56;5044838;28;19924;-76
2021/04/07 06:57:57;;;;;;;;;;;;;;;4.94;100.00;99437.47;5050157;28;20424;-76
2021/04/07 07:00:26;;;;;;;;;;;;;;;4.29;100.00;99450.00;5052868;28;20553;-76
2021/04/07 07:02:59;;;;;;;;;;;;;;;4.47;100.00;99453.06;5053055;28;19929;-76
2021/04/07 07:05:26;;;;;;;;;;;;;;;5.36;100.00;99454.56;5052847;28;19925;-77
2021/04/07 07:07:58;;;;;;;;;;;;;;;5.09;100.00;99458.63;5052768;28;19932;-77
2021/04/07 07:10:35;;;;;;;;;;;;;;;4.06;100.00;99468.63;5050780;28;20368;-76
2021/04/07 07:13:02;;;;;;;;;;;;;;;4.46;100.00;99466.09;5051637;28;19931;-76
2021/04/07 07:15:29;;;;;;;;;;;;;;;4.15;100.00;99455.31;5051608;28;19932;-76
2021/04/07 07:17:56;;;;;;;;;;;;;;;4.45;100.00;99464.50;5052512;28;19924;-76
2021/04/07 07:20:30;;;;;;;;;;;;;;;4.89;100.00;99462.72;5052027;28;20315;-77
2021/04/07 07:22:57;;;;;;;;;;;;;;;4.86;100.00;99460.69;5052593;28;19924;-76
2021/04/07 07:25:25;;;;;;;;;;;;;;;4.63;100.00;99468.31;5052797;28;19925;-76
2021/04/07 07:28:11;;;;;;;;;;;;;;;4.14;100.00;99469.53;5037762;28;19925;-76
2021/04/07 07:30:42;;;;;;;;;;;;;;;3.09;100.00;99457.41;5052731;28;20046;-75
2021/04/07 07:33:13;;;;;;;;;;;;;;;2.80;100.00;99475.31;5051339;28;20387;-76
2021/04/07 07:35:40;;;;;;;;;;;;;;;2.70;100.00;99472.34;5052638;28;19933;-76
2021/04/07 07:38:07;;;;;;;;;;;;;;;3.10;100.00;99479.13;5055878;28;20013;-76
2021/04/07 07:40:34;;;;;;;;;;;;;;;3.41;100.00;99470.66;5055034;28;19931;-76
2021/04/07 07:43:00;;;;;;;;;;;;;;;3.62;100.00;99465.50;5055932;28;20002;-76
2021/04/07 07:45:33;;;;;;;;;;;;;;;3.29;100.00;99484.63;5055533;28;19925;-76
2021/04/07 07:48:00;;;;;;;;;;;;;;;3.25;100.00;99471.91;5055517;28;20372;-76
2021/04/07 07:50:37;;;;;;;;;;;;;;;2.81;100.00;99490.75;5055442;28;19948;-76
2021/04/07 07:53:11;;;;;;;;;;;;;;;2.66;100.00;99486.06;5055372;28;19925;-76
2021/04/07 07:55:38;;;;;;;;;;;;;;;3.13;100.00;99491.41;5055268;28;20405;-76
2021/04/07 07:58:05;;;;;;;;;;;;;;;3.04;100.00;99482.53;5052878;28;19990;-77
2021/04/07 08:00:31;;;;;;;;;;;;;;;3.03;100.00;99492.00;5055707;28;19932;-76
2021/04/07 08:03:08;;;;;;;;;;;;;;;2.77;100.00;99491.81;5054714;28;19925;-76
2021/04/07 08:05:35;;;;;;;;;;;;;;;2.48;100.00;99492.34;5054505;28;19925;-76
2021/04/07 08:08:03;;;;;;;;;;;;;;;2.49;100.00;99499.47;5050603;28;19929;-76
2021/04/07 08:10:31;;;;;;;;;;;;;;;2.26;100.00;99493.81;5055051;28;20319;-76
2021/04/07 08:12:59;;;;;;;;;;;;;;;2.36;100.00;99498.00;5054268;28;19928;-75
2021/04/07 08:15:27;;;;;;;;;;;;;;;2.56;100.00;99502.41;5055593;28;19925;-75
2021/04/07 08:17:53;;;;;;;;;;;;;;;2.49;100.00;99500.28;5055435;28;20530;-75
2021/04/07 08:20:20;;;;;;;;;;;;;;;2.82;100.00;99502.56;5055402;28;19924;-76
2021/04/07 08:22:48;;;;;;;;;;;;;;;2.74;100.00;99495.31;5054309;28;20015;-74
2021/04/07 08:25:17;;;;;;;;;;;;;;;2.51;100.00;99499.91;5046360;28;20054;-77
2021/04/07 08:27:44;;;;;;;;;;;;;;;2.74;100.00;99506.34;5043419;28;19951;-76
2021/04/07 08:30:13;;;;;;;;;;;;;;;2.46;100.00;99494.66;5050354;28;20017;-76
2021/04/07 08:32:40;;;;;;;;;;;;;;;2.49;100.00;99499.47;5049508;28;19932;-76
2021/04/07 08:35:07;;;;;;;;;;;;;;;2.38;100.00;99507.50;5050566;28;19929;-75
2021/04/07 08:37:34;;;;;;;;;;;;;;;2.65;100.00;99505.75;5050352;28;19979;-75
2021/04/07 08:40:10;;;;;;;;;;;;;;;2.83;100.00;99510.47;5050253;28;19925;-75
2021/04/07 08:42:39;;;;;;;;;;;;;;;2.54;100.00;99501.94;5050916;28;19997;-74
2021/04/07 08:45:07;;;;;;;;;;;;;;;2.22;100.00;99519.72;5050059;28;19925;-74
2021/04/07 08:47:45;;;;;;;;;;;;;;;2.44;100.00;99508.81;5050544;28;19982;-75
2021/04/07 08:50:13;;;;;;;;;;;;;;;2.31;100.00;99506.53;5050105;28;19929;-76
2021/04/07 08:52:44;;;;;;;;;;;;;;;2.46;100.00;99516.72;5046458;28;20733;-74
2021/04/07 08:55:14;;;;;;;;;;;;;;;2.74;100.00;99506.34;5047738;28;20023;-74
2021/04/07 08:58:06;;;;;;;;;;;;;;;2.69;100.00;99498.34;5051072;28;19929;-74
2021/04/07 09:00:37;;;;;;;;;;;;;;;2.75;100.00;99508.75;5049813;28;19960;-74
2021/04/07 09:03:09;;;;;;;;;;;;;;;2.45;100.00;99526.16;5048842;28;20024;-74
2021/04/07 09:05:36;;;;;;;;;;;;;;;2.64;100.00;99524.25;5050131;28;20394;-75
2021/04/07 09:08:06;;;;;;;;;;;;;;;2.80;100.00;99526.97;5050713;28;19960;-75
2021/04/07 09:10:51;;;;;;;;;;;;;;;2.87;100.00;99524.38;5049810;28;19929;-75
2021/04/07 09:13:29;;;;;;;;;;;;;;;2.76;100.00;99523.31;5045089;28;20015;-75
2021/04/07 09:16:03;;;;;;;;;;;;;;;2.38;100.00;99520.50;5064534;28;19929;-74
2021/04/07 09:18:32;;;;;;;;;;;;;;;2.16;100.00;99534.91;5049919;28;20069;-74
2021/04/07 09:21:00;;;;;;;;;;;;;;;2.32;100.00;99539.25;5046325;28;20025;-77
2021/04/07 09:23:34;;;;;;;;;;;;;;;2.54;100.00;99535.06;5049865;28;20299;-75
2021/04/07 09:26:08;;;;;;;;;;;;;;;2.81;100.00;99529.38;5050326;28;20418;-75
2021/04/07 09:28:38;;;;;;;;;;;;;;;2.56;100.00;99521.72;5039884;28;19925;-75
2021/04/07 09:31:06;;;;;;;;;;;;;;;2.55;100.00;99531.94;5048100;28;20443;-75
2021/04/07 09:33:35;;;;;;;;;;;;;;;2.37;100.00;99529.91;5049761;28;19924;-74
2021/04/07 09:36:02;;;;;;;;;;;;;;;2.03;100.00;99527.91;5050260;28;19936;-75
2021/04/07 09:38:30;;;;;;;;;;;;;;;2.29;100.00;99536.44;5043420;28;19932;-76
2021/04/07 09:41:04;;;;;;;;;;;;;;;2.91;100.00;99526.03;5049637;28;19978;-75
2021/04/07 09:43:31;;;;;;;;;;;;;;;2.87;100.00;99527.13;5049688;28;19944;-75
2021/04/07 09:46:01;;;;;;;;;;;;;;;2.10;100.00;99530.84;5048040;28;20407;-75
2021/04/07 09:48:37;;;;;;;;;;;;;;;1.74;100.00;99532.69;5044755;28;20426;-75
2021/04/07 09:51:18;;;;;;;;;;;;;;;2.08;100.00;99533.13;5048648;28;20388;-75
2021/04/07 09:53:52;;;;;;;;;;;;;;;2.11;100.00;99532.41;5050400;28;19931;-75
2021/04/07 09:56:18;;;;;;;;;;;;;;;2.61;100.00;99535.22;5041329;28;19986;-75
2021/04/07 09:58:49;;;;;;;;;;;;;;;3.08;100.00;99527.56;5046497;28;19925;-75
2021/04/07 10:01:17;;;;;;;;;;;;;;;3.07;100.00;99526.00;5047027;28;19970;-76
2021/04/07 10:03:48;;;;;;;;;;;;;;;2.98;100.00;99515.16;5049598;28;19924;-76
2021/04/07 10:06:25;;;;;;;;;;;;;;;3.09;100.00;99520.91;5048567;28;20014;-75
2021/04/07 10:09:08;;;;;;;;;;;;;;;3.40;100.00;99516.03;5048622;28;19983;-75
2021/04/07 10:11:39;;;;;;;;;;;;;;;3.74;100.00;99509.53;5044329;28;19933;-74
2021/04/07 10:14:06;;;;;;;;;;;;;;;3.65;100.00;99510.94;5046687;28;20010;-75
2021/04/07 10:16:34;;;;;;;;;;;;;;;3.53;100.00;99497.28;5045433;28;19925;-74
2021/04/07 10:19:04;;;;;;;;;;;;;;;3.18;100.00;99515.97;5048432;28;19935;-74
2021/04/07 10:21:31;;;;;;;;;;;;;;;2.86;100.00;99520.00;5048274;28;19929;-75
2021/04/07 10:23:59;;;;;;;;;;;;;;;2.71;100.00;99518.88;5046548;28;20015;-74
2021/04/07 10:26:26;;;;;;;;;;;;;;;3.05;100.00;99528.31;5046191;28;20002;-75
2021/04/07 10:28:54;;;;;;;;;;;;;;;3.37;100.00;99514.00;5046245;28;20276;-75
2021/04/07 10:31:21;;;;;;;;;;;;;;;3.50;100.00;99512.66;5049117;28;20280;-74
2021/04/07 10:33:48;;;;;;;;;;;;;;;3.33;100.00;99515.88;5047887;28;19925;-76
2021/04/07 10:36:15;;;;;;;;;;;;;;;3.10;100.00;99519.75;5048103;28;19932;-75
2021/04/07 10:39:10;;;;;;;;;;;;;;;3.05;100.00;99523.59;5046730;28;19924;-75
2021/04/07 10:41:37;;;;;;;;;;;;;;;2.74;100.00;99529.19;5048243;28;19925;-75
2021/04/07 10:44:04;;;;;;;;;;;;;;;3.13;100.00;99541.09;5048997;28;20272;-77
2021/04/07 10:46:31;;;;;;;;;;;;;;;3.79;100.00;99527.78;5048433;28;20559;-77
2021/04/07 10:49:01;;;;;;;;;;;;;;;3.36;100.00;99519.88;5045628;28;20070;-77
2021/04/07 10:51:31;;;;;;;;;;;;;;;3.37;100.00;99529.75;5027565;28;20273;-77
2021/04/07 10:53:58;;;;;;;;;;;;;;;3.22;100.00;99516.81;5046074;28;19933;-76
2021/04/07 10:56:26;;;;;;;;;;;;;;;3.33;100.00;99532.44;5048231;28;19932;-77
2021/04/07 10:58:54;;;;;;;;;;;;;;;3.55;100.00;99533.66;5046637;28;20391;-77
2021/04/07 11:01:31;;;;;;;;;;;;;;;3.67;100.00;99527.97;5045669;28;19978;-77
2021/04/07 11:04:19;;;;;;;;;;;;;;;3.63;100.00;99527.88;5046434;28;19935;-74
2021/04/07 11:06:54;;;;;;;;;;;;;;;4.04;100.00;99515.22;5043990;28;20318;-75
2021/04/07 11:09:27;;;;;;;;;;;;;;;4.59;100.00;99508.97;5045763;28;20292;-75
2021/04/07 11:11:54;;;;;;;;;;;;;;;4.52;100.00;99514.41;5052725;28;19925;-75
2021/04/07 11:14:21;;;;;;;;;;;;;;;4.71;100.00;99511.50;5052456;28;20374;-76
2021/04/07 11:16:55;;;;;;;;;;;;;;;4.26;100.00;99519.09;5046758;28;20312;-75
2021/04/07 11:19:21;;;;;;;;;;;;;;;3.63;100.00;99521.59;5045849;28;19929;-75
2021/04/07 11:21:50;;;;;;;;;;;;;;;3.48;100.00;99519.72;5048430;28;19926;-75
2021/04/07 11:24:17;;;;;;;;;;;;;;;3.72;100.00;99533.19;5062773;28;20395;-75
2021/04/07 11:26:44;;;;;;;;;;;;;;;3.83;100.00;99516.81;5043742;28;19924;-75
2021/04/07 11:29:10;;;;;;;;;;;;;;;3.27;100.00;99508.25;5050704;28;19925;-75
2021/04/07 11:31:37;;;;;;;;;;;;;;;2.85;100.00;99523.91;5050781;28;20319;-74
2021/04/07 11:34:14;;;;;;;;;;;;;;;2.89;100.00;99522.81;5052383;28;20030;-75
2021/04/07 11:46:41;;;;;;;;;;;;;;;3.54;100.00;99523.78;5052678;28;19927;-75
2021/04/07 11:49:07;;;;;;;;;;;;;;;3.49;100.00;99521.31;5051087;28;20015;-74
2021/04/07 11:51:39;;;;;;;;;;;;;;;3.61;100.00;99521.13;5048240;28;20371;-74
2021/04/07 11:54:07;;;;;;;;;;;;;;;4.02;100.00;99512.00;5051942;28;19932;-74
2021/04/07 11:56:34;;;;;;;;;;;;;;;3.83;100.00;99522.34;5050718;28;19927;-74
2021/04/07 11:59:00;;;;;;;;;;;;;;;3.68;100.00;99521.28;5051236;28;19924;-75
2021/04/07 12:01:27;;;;;;;;;;;;;;;3.72;100.00;99520.19;5052268;28;19962;-74
2021/04/07 12:03:55;;;;;;;;;;;;;;;3.83;100.00;99536.97;5051752;28;20327;-74
2021/04/07 12:06:21;;;;;;;;;;;;;;;3.43;100.00;99522.78;5051512;28;20261;-74
2021/04/07 12:08:49;;;;;;;;;;;;;;;3.24;100.00;99520.03;5052256;28;19921;-74
2021/04/07 12:11:15;;;;;;;;;;;;;;;3.54;100.00;99507.19;5051359;28;19920;-74
2021/04/07 12:13:42;;;;;;;;;;;;;;;3.94;100.00;99510.28;5050419;28;19925;-75
2021/04/07 12:16:09;;;;;;;;;;;;;;;4.03;100.00;99505.31;5052187;28;19921;-74
2021/04/07 12:18:36;;;;;;;;;;;;;;;3.92;100.00;99493.28;5051461;28;19962;-74
2021/04/07 12:21:03;;;;;;;;;;;;;;;4.31;100.00;99511.31;5050730;28;19924;-75
2021/04/07 12:23:29;;;;;;;;;;;;;;;3.87;100.00;99498.31;5051869;28;20412;-75
2021/04/07 12:25:57;;;;;;;;;;;;;;;4.16;100.00;99494.84;5051293;28;19952;-75
2021/04/07 12:28:24;;;;;;;;;;;;;;;4.39;100.00;99504.69;5051392;28;20407;-76
2021/04/07 12:30:51;;;;;;;;;;;;;;;4.26;100.00;99503.31;5051180;28;19920;-75
2021/04/07 12:33:21;;;;;;;;;;;;;;;4.59;100.00;99513.72;5051173;28;19928;-76
2021/04/07 12:35:49;;;;;;;;;;;;;;;4.41;100.00;99501.59;5050005;28;19921;-76
2021/04/07 12:38:16;;;;;;;;;;;;;;;4.74;100.00;99501.69;5052311;28;19921;-75
2021/04/07 12:40:46;;;;;;;;;;;;;;;4.85;100.00;99520.03;5050795;28;20253;-75
2021/04/07 12:43:14;;;;;;;;;;;;;;;4.60;100.00;99493.97;5051141;28;19921;-75
2021/04/07 12:45:40;;;;;;;;;;;;;;;4.55;100.00;99507.31;5051729;28;19924;-75
2021/04/07 12:48:07;;;;;;;;;;;;;;;3.91;100.00;99516.56;5050960;28;20007;-75
2021/04/07 12:50:34;;;;;;;;;;;;;;;3.87;100.00;99509.38;5050628;28;19921;-76
2021/04/07 12:53:03;;;;;;;;;;;;;;;3.80;100.00;99515.59;5051597;28;20387;-75
2021/04/07 12:55:30;;;;;;;;;;;;;;;3.81;100.00;99522.69;5051072;28;19924;-75
2021/04/07 12:57:58;;;;;;;;;;;;;;;3.72;100.00;99520.19;5050911;28;19920;-75
2021/04/07 13:00:25;;;;;;;;;;;;;;;3.71;100.00;99535.16;5049853;28;19921;-75